Kelly Field Annex

About
Name: Kelly Field Annex
Identifier:  SKF/KSKF
Local Time:  18. Sep 14:00 CDT
Description: Kelly Field Annex is a United States Air Force facility located in San Antonio, Texas. In 2001, pursuant to BRAC action, the former Kelly AFB runway and land west of the runway became "Kelly Field Annex" and control of this reduced size installation was transferred to the adjacent Lackland Air Force Base, part of Joint Base San Antonio. The base is under the jurisdiction of the 802d Mission Support Group, Air Education and Training Command.
Source: Wikipedia
Location
San Antonio
  United States

Statistics
Flights per Day:
0 flights
Distance: 1,781km (1,107mi)
Flights delayed:
66% (0 flights per day delayed)
Delay Average: 16 minutes
Current Weather
 35 C (Humidity: 44%)
  6kt (11km/h / 6mph) from 200°
  16km (10 mi.)
 
 METAR KSKF 181756Z AUTO 20006KT 10SM CLR 35/21 A2989 RMK AO2 SLP113 T03510213 10352 20232 $

Current Delays

Departures
N/A
Arrivals
N/A

Destinations

Top Destinations
Airport Flights
per week
Seats
per week
  Riverside (RIV) 0 55 0 7
  Cincinnati (CVG) 0 - 0 0

Airlines & Planes

Top Airlines
Airline Flights
per Day
Seats
per Day
  Atlas Air 0 7
Top Plane Types
Model Flights Seats
Boeing B767-300 0.1/day 7/day 7.933333333333334